createdAt,value
2018-06-18T00:01:05.752Z,8.33
2018-06-18T00:03:35.691Z,8.27
2018-06-18T00:06:04.386Z,6.93
2018-06-18T00:08:33.704Z,6.90
2018-06-18T00:11:02.336Z,6.97
2018-06-18T00:13:30.991Z,6.40
2018-06-18T00:15:59.620Z,6.73
2018-06-18T00:18:28.318Z,6.60
2018-06-18T00:20:57.005Z,6.90
2018-06-18T00:23:25.670Z,6.43
2018-06-18T00:25:54.436Z,6.23
2018-06-18T00:28:23.129Z,6.90
2018-06-18T00:30:51.951Z,6.50
2018-06-18T00:33:20.614Z,6.20
2018-06-18T00:35:49.309Z,6.00
2018-06-18T00:38:18.055Z,5.83
2018-06-18T00:40:46.987Z,6.73
2018-06-18T00:43:15.633Z,6.10
2018-06-18T00:45:44.286Z,5.40
2018-06-18T00:48:13.048Z,6.17
2018-06-18T00:50:42.184Z,5.97
2018-06-18T00:53:10.922Z,6.03
2018-06-18T00:55:50.822Z,5.93
2018-06-18T00:58:19.544Z,6.40
2018-06-18T01:00:48.219Z,6.00
2018-06-18T01:03:16.914Z,5.77
2018-06-18T01:05:45.555Z,5.87
2018-06-18T01:08:14.235Z,5.40
2018-06-18T01:10:42.980Z,5.30
2018-06-18T01:13:11.666Z,5.80
2018-06-18T01:15:40.328Z,5.80
2018-06-18T01:18:08.979Z,5.10
2018-06-18T01:20:37.662Z,5.90
2018-06-18T01:25:18.683Z,4.93
2018-06-18T01:27:47.331Z,4.77
2018-06-18T01:30:16.018Z,4.87
2018-06-18T01:32:44.660Z,5.13
2018-06-18T01:35:13.355Z,4.90
2018-06-18T01:37:42.027Z,4.70
2018-06-18T01:40:10.713Z,4.87
2018-06-18T01:42:39.410Z,5.17
2018-06-18T01:45:08.110Z,4.70
2018-06-18T01:47:36.782Z,5.37
2018-06-18T01:50:05.492Z,4.80
2018-06-18T01:52:34.191Z,5.10
2018-06-18T01:55:02.851Z,5.00
2018-06-18T01:57:31.545Z,4.80
2018-06-18T02:00:00.210Z,5.50
2018-06-18T02:02:28.967Z,5.53
2018-06-18T02:04:57.287Z,5.20
2018-06-18T02:07:26.027Z,5.17
2018-06-18T02:09:54.814Z,5.00
2018-06-18T02:12:23.529Z,4.60
2018-06-18T02:14:52.243Z,4.80
2018-06-18T02:17:20.919Z,5.20
2018-06-18T02:19:49.610Z,4.40
2018-06-18T02:22:17.913Z,4.63
2018-06-18T02:24:46.552Z,4.67
2018-06-18T02:27:18.037Z,5.03
2018-06-18T02:29:52.359Z,4.90
2018-06-18T02:32:26.608Z,4.90
2018-06-18T02:35:00.563Z,4.80
2018-06-18T02:37:34.521Z,4.70
2018-06-18T02:40:08.469Z,4.73
2018-06-18T02:42:37.181Z,4.90
2018-06-18T02:45:06.259Z,4.63
2018-06-18T02:47:35.009Z,4.93
2018-06-18T02:50:03.825Z,4.57
2018-06-18T02:52:32.532Z,4.80
2018-06-18T02:55:01.220Z,4.97
2018-06-18T02:57:30.332Z,4.77
2018-06-18T02:59:59.047Z,4.43
2018-06-18T03:02:27.746Z,4.70
2018-06-18T03:04:56.968Z,4.87
2018-06-18T03:07:25.732Z,4.80
2018-06-18T03:09:54.397Z,5.17
2018-06-18T03:12:23.121Z,5.10
2018-06-18T03:14:51.857Z,5.10
2018-06-18T03:17:20.529Z,5.07
2018-06-18T03:19:54.474Z,4.77
2018-06-18T03:22:28.303Z,4.77
2018-06-18T03:25:02.247Z,5.00
2018-06-18T03:27:36.171Z,5.17
2018-06-18T03:30:04.885Z,5.03
2018-06-18T03:32:33.543Z,5.40
2018-06-18T03:35:02.270Z,5.10
2018-06-18T03:37:31.049Z,4.63
2018-06-18T03:39:59.703Z,5.23
2018-06-18T03:42:28.319Z,5.00
2018-06-18T03:45:02.736Z,5.60
2018-06-18T03:47:31.524Z,4.90
2018-06-18T03:50:00.321Z,5.17
2018-06-18T03:52:29.010Z,5.30
2018-06-18T03:55:00.411Z,4.60
2018-06-18T03:57:29.028Z,5.37
2018-06-18T03:59:57.726Z,4.97
2018-06-18T04:02:42.372Z,5.23
2018-06-18T04:05:16.249Z,5.30
2018-06-18T04:07:50.170Z,5.77
2018-06-18T04:10:24.170Z,5.37
2018-06-18T04:12:52.839Z,5.23
2018-06-18T04:15:22.419Z,5.07
2018-06-18T04:17:51.126Z,6.00
2018-06-18T04:20:20.629Z,5.50
2018-06-18T04:22:49.283Z,4.80
2018-06-18T04:25:17.913Z,5.20
2018-06-18T04:27:46.584Z,5.50
2018-06-18T04:30:15.374Z,5.40
2018-06-18T04:32:45.158Z,5.10
2018-06-18T04:35:13.824Z,5.13
2018-06-18T04:37:42.565Z,4.93
2018-06-18T04:40:11.351Z,5.77
2018-06-18T04:42:45.188Z,5.57
2018-06-18T04:45:19.056Z,5.13
2018-06-18T04:47:52.978Z,5.27
2018-06-18T04:50:26.985Z,5.10
2018-06-18T04:52:55.960Z,5.97
2018-06-18T04:55:24.707Z,5.30
2018-06-18T04:57:53.411Z,5.50
2018-06-18T05:01:27.099Z,5.57
2018-06-18T05:03:55.913Z,5.40
2018-06-18T05:06:29.255Z,5.60
2018-06-18T05:09:12.261Z,5.27
2018-06-18T05:11:41.010Z,5.50
2018-06-18T05:14:09.642Z,5.33
2018-06-18T05:16:38.288Z,5.57
2018-06-18T05:19:06.970Z,6.13
2018-06-18T05:21:35.861Z,5.37
2018-06-18T05:24:04.849Z,5.70
2018-06-18T05:26:35.255Z,5.50
2018-06-18T05:29:03.928Z,5.50
2018-06-18T05:31:32.561Z,5.67
2018-06-18T05:34:01.885Z,4.80
2018-06-18T05:36:30.647Z,5.33
2018-06-18T05:38:59.335Z,5.20
2018-06-18T05:41:28.037Z,5.20
2018-06-18T05:43:56.696Z,5.27
2018-06-18T05:46:25.343Z,5.23
2018-06-18T05:48:54.079Z,4.90
2018-06-18T05:51:22.792Z,5.40
2018-06-18T05:53:51.481Z,5.20
2018-06-18T05:56:20.168Z,5.27
2018-06-18T05:58:48.798Z,5.00
2018-06-18T06:01:17.423Z,5.10
2018-06-18T06:03:47.079Z,5.03
2018-06-18T06:06:15.825Z,5.60
2018-06-18T06:08:44.569Z,4.87
2018-06-18T06:11:12.858Z,5.00
2018-06-18T06:13:41.576Z,5.20
2018-06-18T06:16:10.241Z,4.80
2018-06-18T06:18:38.974Z,5.40
2018-06-18T06:21:10.053Z,4.97
2018-06-18T06:23:38.729Z,4.83
2018-06-18T06:26:07.371Z,4.77
2018-06-18T06:28:36.027Z,4.40
2018-06-18T06:31:04.732Z,4.13
2018-06-18T06:33:33.414Z,4.07
2018-06-18T06:36:02.477Z,4.13
2018-06-18T06:38:31.151Z,4.30
2018-06-18T06:40:59.866Z,4.30
2018-06-18T06:43:28.527Z,3.97
2018-06-18T06:45:57.141Z,4.10
2018-06-18T06:48:25.761Z,3.97
2018-06-18T06:50:54.434Z,4.43
2018-06-18T06:53:23.119Z,3.87
2018-06-18T06:55:51.828Z,4.40
2018-06-18T06:58:20.460Z,4.80
2018-06-18T07:00:49.147Z,4.40
2018-06-18T07:03:17.841Z,4.43
2018-06-18T07:05:46.689Z,4.87
2018-06-18T07:08:15.059Z,5.40
2018-06-18T07:10:43.714Z,5.30
2018-06-18T07:13:12.361Z,5.67
2018-06-18T07:15:41.033Z,4.93
2018-06-18T07:18:09.713Z,5.57
2018-06-18T07:20:38.321Z,5.40
2018-06-18T07:23:06.635Z,4.97
2018-06-18T07:25:35.343Z,5.40
2018-06-18T07:28:03.997Z,5.40
2018-06-18T07:30:33.023Z,4.73
2018-06-18T07:33:01.557Z,4.87
2018-06-18T07:35:30.248Z,4.70
2018-06-18T07:37:58.628Z,4.50
2018-06-18T07:40:27.267Z,4.10
2018-06-18T07:42:55.925Z,4.17
2018-06-18T07:45:24.632Z,4.43
2018-06-18T07:47:53.271Z,4.50
2018-06-18T07:50:21.991Z,4.90
2018-06-18T07:52:50.317Z,4.47
2018-06-18T07:55:19.023Z,3.90
2018-06-18T07:57:47.681Z,3.80
2018-06-18T08:00:16.352Z,3.73
2018-06-18T08:02:45.044Z,3.60
2018-06-18T08:05:13.754Z,3.60
2018-06-18T08:07:42.472Z,3.83
2018-06-18T08:10:11.436Z,3.43
2018-06-18T08:12:40.172Z,3.53
2018-06-18T08:15:08.921Z,4.03
2018-06-18T08:17:37.554Z,3.70
2018-06-18T08:20:06.313Z,4.37
2018-06-18T08:22:35.093Z,3.97
2018-06-18T08:25:03.869Z,3.90
2018-06-18T08:27:32.547Z,3.60
2018-06-18T08:30:01.219Z,3.40
2018-06-18T08:32:29.917Z,3.33
2018-06-18T08:34:58.579Z,3.50
2018-06-18T08:37:27.283Z,3.60
2018-06-18T08:39:55.932Z,3.60
2018-06-18T08:42:24.646Z,3.93
2018-06-18T08:44:53.364Z,3.57
2018-06-18T08:47:22.298Z,3.80
2018-06-18T08:49:56.280Z,3.47
2018-06-18T08:52:30.234Z,3.47
2018-06-18T08:55:04.144Z,2.70
2018-06-18T08:57:38.066Z,2.97
2018-06-18T09:00:11.990Z,3.10
2018-06-18T09:02:46.007Z,3.10
2018-06-18T09:05:14.663Z,2.80
2018-06-18T09:07:48.627Z,3.30
2018-06-18T09:10:17.413Z,3.10
2018-06-18T09:12:46.145Z,3.53
2018-06-18T09:15:14.853Z,3.43
2018-06-18T09:17:43.645Z,3.60
2018-06-18T09:20:12.397Z,3.37
2018-06-18T09:22:41.137Z,3.50
2018-06-18T09:25:09.852Z,3.70
2018-06-18T09:27:38.518Z,3.40
2018-06-18T09:30:10.724Z,3.50
2018-06-18T09:32:39.487Z,3.63
2018-06-18T09:35:08.162Z,3.67
2018-06-18T09:37:36.837Z,3.77
2018-06-18T09:40:05.496Z,3.47
2018-06-18T09:42:34.330Z,3.40
2018-06-18T09:45:03.642Z,3.47
2018-06-18T09:47:32.314Z,3.37
2018-06-18T09:50:06.243Z,3.90
2018-06-18T09:52:40.163Z,3.20
2018-06-18T09:55:14.115Z,3.00
2018-06-18T09:57:48.195Z,3.40
2018-06-18T10:00:32.213Z,3.20
2018-06-18T10:03:00.936Z,3.90
2018-06-18T10:05:29.731Z,3.40
2018-06-18T10:07:58.381Z,3.40
2018-06-18T10:10:27.053Z,3.60
2018-06-18T10:12:55.729Z,3.73
2018-06-18T10:15:24.381Z,3.80
2018-06-18T10:17:53.047Z,3.63
2018-06-18T10:20:21.791Z,4.03
2018-06-18T10:22:50.535Z,4.30
2018-06-18T10:25:19.190Z,4.70
2018-06-18T10:27:49.985Z,4.80
2018-06-18T10:30:18.796Z,5.23
2018-06-18T10:32:52.922Z,5.30
2018-06-18T10:35:26.876Z,5.40
2018-06-18T10:38:00.923Z,5.93
2018-06-18T10:40:34.796Z,6.30
2018-06-18T10:43:08.814Z,5.97
2018-06-18T10:45:37.516Z,6.10
2018-06-18T10:48:06.320Z,6.47
2018-06-18T10:50:34.977Z,6.63
2018-06-18T10:53:03.677Z,7.07
2018-06-18T10:55:32.397Z,7.00
2018-06-18T10:58:00.730Z,7.27
2018-06-18T11:00:29.721Z,7.67
2018-06-18T11:02:58.505Z,7.53
2018-06-18T11:05:32.511Z,7.20
2018-06-18T11:08:01.212Z,7.53
2018-06-18T11:10:30.012Z,7.87
2018-06-18T11:12:58.644Z,7.93
2018-06-18T11:15:27.441Z,8.00
2018-06-18T11:18:01.440Z,8.23
2018-06-18T11:20:35.347Z,7.83
2018-06-18T11:23:09.351Z,8.40
2018-06-18T11:25:43.343Z,8.20
2018-06-18T11:28:12.160Z,8.47
2018-06-18T11:30:41.012Z,8.70
2018-06-18T11:33:09.653Z,9.53
2018-06-18T11:35:38.437Z,9.00
2018-06-18T11:38:07.265Z,8.20
2018-06-18T11:40:35.908Z,7.80
2018-06-18T11:43:04.631Z,8.13
2018-06-18T11:45:33.351Z,7.57
2018-06-18T11:48:08.419Z,8.60
2018-06-18T11:50:37.087Z,9.20
2018-06-18T11:53:06.112Z,10.97
2018-06-18T11:55:35.465Z,12.03
2018-06-18T11:58:04.795Z,11.80
2018-06-18T12:00:38.896Z,13.20
2018-06-18T12:03:12.961Z,13.00
2018-06-18T12:05:46.987Z,14.20
2018-06-18T12:08:21.002Z,14.17
2018-06-18T12:10:50.691Z,15.10
2018-06-18T12:13:19.494Z,14.30
2018-06-18T12:15:48.133Z,13.83
2018-06-18T12:18:19.087Z,11.90
2018-06-18T12:20:47.733Z,11.40
2018-06-18T12:23:16.470Z,9.03
2018-06-18T12:25:45.163Z,10.40
2018-06-18T12:28:13.899Z,9.63
2018-06-18T12:30:42.560Z,9.57
2018-06-18T12:33:11.295Z,9.10
2018-06-18T12:35:40.008Z,8.70
2018-06-18T12:38:08.764Z,8.47
2018-06-18T12:40:37.410Z,8.00
2018-06-18T12:43:06.165Z,8.43
2018-06-18T12:45:40.234Z,9.07
2018-06-18T12:48:14.239Z,9.57
2018-06-18T12:50:48.283Z,9.40
2018-06-18T12:53:22.193Z,10.87
2018-06-18T12:55:56.377Z,10.23
2018-06-18T12:58:25.471Z,9.80
2018-06-18T13:00:54.095Z,10.00
2018-06-18T13:03:22.924Z,10.47
2018-06-18T13:05:51.594Z,10.70
2018-06-18T13:08:20.309Z,10.00
2018-06-18T13:10:49.478Z,10.73
2018-06-18T13:13:18.185Z,10.93
2018-06-18T13:15:46.884Z,11.17
2018-06-18T13:18:15.741Z,12.13
2018-06-18T13:20:44.530Z,10.37
2018-06-18T13:23:13.213Z,9.53
2018-06-18T13:25:41.880Z,9.70
2018-06-18T13:28:16.249Z,10.00
2018-06-18T13:30:45.584Z,10.47
2018-06-18T13:33:14.280Z,9.70
2018-06-18T13:35:42.975Z,11.27
2018-06-18T13:38:16.927Z,12.67
2018-06-18T13:40:51.027Z,13.47
2018-06-18T13:43:24.914Z,13.27
2018-06-18T13:45:58.649Z,12.80
2018-06-18T13:48:32.698Z,12.57
2018-06-18T13:51:01.512Z,13.33
2018-06-18T13:53:30.224Z,16.57
2018-06-18T13:55:58.938Z,13.97
2018-06-18T13:58:27.681Z,13.23
2018-06-18T14:00:56.473Z,13.23
2018-06-18T14:03:25.184Z,12.60
2018-06-18T14:05:54.235Z,12.13
2018-06-18T14:08:23.092Z,12.90
2018-06-18T14:10:51.876Z,12.37
2018-06-18T14:13:20.576Z,11.93
2018-06-18T14:15:49.264Z,10.97
2018-06-18T14:18:17.983Z,10.77
2018-06-18T14:20:46.759Z,10.80
2018-06-18T14:23:15.526Z,10.37
2018-06-18T14:25:44.287Z,11.33
2018-06-18T14:28:13.055Z,10.40
2018-06-18T14:30:47.211Z,10.50
2018-06-18T14:33:37.896Z,10.67
2018-06-18T14:36:11.986Z,9.67
2018-06-18T14:38:45.971Z,9.70
2018-06-18T14:41:14.656Z,10.10
2018-06-18T14:43:43.331Z,9.00
2018-06-18T14:46:11.987Z,10.17
2018-06-18T14:48:40.763Z,8.00
2018-06-18T14:51:09.384Z,8.90
2018-06-18T14:53:38.042Z,8.33
2018-06-18T14:56:13.377Z,7.40
2018-06-18T14:58:44.794Z,8.47
2018-06-18T15:01:13.470Z,8.17
2018-06-18T15:03:42.135Z,7.97
2018-06-18T15:06:10.823Z,9.57
2018-06-18T15:08:39.431Z,7.10
2018-06-18T15:11:08.061Z,7.67
2018-06-18T15:13:36.686Z,8.50
2018-06-18T15:16:10.715Z,7.97
2018-06-18T15:18:39.349Z,7.23
2018-06-18T15:21:08.192Z,8.50
2018-06-18T15:23:36.846Z,8.80
2018-06-18T15:26:05.921Z,8.43
2018-06-18T15:28:34.497Z,8.73
2018-06-18T15:31:03.177Z,10.37
2018-06-18T15:33:31.823Z,8.97
2018-06-18T15:36:00.433Z,7.83
2018-06-18T15:38:29.211Z,8.60
2018-06-18T15:40:58.676Z,7.77
2018-06-18T15:43:27.312Z,9.20
2018-06-18T15:45:55.985Z,8.23
2018-06-18T15:48:24.642Z,8.17
2018-06-18T15:50:53.276Z,8.80
2018-06-18T15:53:21.965Z,8.27
2018-06-18T15:55:50.707Z,9.17
2018-06-18T15:58:19.316Z,8.77
2018-06-18T16:00:48.019Z,9.77
2018-06-18T16:03:16.710Z,8.77
2018-06-18T16:05:45.365Z,8.77
2018-06-18T16:08:13.971Z,8.93
2018-06-18T16:10:42.283Z,8.93
2018-06-18T16:13:10.942Z,8.67
2018-06-18T16:15:39.631Z,8.87
2018-06-18T16:18:08.280Z,9.00
2018-06-18T16:20:36.926Z,9.23
2018-06-18T16:23:05.736Z,9.50
2018-06-18T16:25:34.444Z,8.80
2018-06-18T16:28:03.085Z,8.00
2018-06-18T16:30:31.782Z,7.67
2018-06-18T16:33:00.407Z,6.77
2018-06-18T16:35:29.062Z,6.13
2018-06-18T16:37:57.675Z,6.77
2018-06-18T16:40:26.303Z,6.13
2018-06-18T16:42:55.070Z,6.10
2018-06-18T16:45:23.657Z,5.90
2018-06-18T16:47:52.295Z,5.60
2018-06-18T16:50:20.916Z,5.60
2018-06-18T16:52:49.584Z,5.77
2018-06-18T16:55:18.261Z,5.93
2018-06-18T16:57:46.896Z,6.33
2018-06-18T17:00:15.549Z,6.80
2018-06-18T17:02:44.198Z,6.57
2018-06-18T17:05:12.858Z,7.33
2018-06-18T17:07:41.529Z,6.87
2018-06-18T17:10:10.128Z,6.80
2018-06-18T17:12:38.917Z,7.13
2018-06-18T17:15:07.614Z,7.57
2018-06-18T17:17:36.267Z,7.60
2018-06-18T17:20:05.059Z,7.57
2018-06-18T17:22:33.760Z,7.37
2018-06-18T17:25:02.364Z,7.80
2018-06-18T17:27:31.011Z,7.60
2018-06-18T17:29:59.654Z,8.83
2018-06-18T17:32:28.273Z,9.20
2018-06-18T17:34:56.973Z,10.00
2018-06-18T17:37:25.653Z,10.17
2018-06-18T17:39:54.342Z,10.47
2018-06-18T17:42:23.023Z,10.63
2018-06-18T17:44:52.006Z,10.83
2018-06-18T17:47:20.730Z,10.53
2018-06-18T17:49:49.445Z,9.97
2018-06-18T17:52:18.134Z,10.73
2018-06-18T17:54:46.774Z,10.03
2018-06-18T17:57:15.416Z,9.57
2018-06-18T17:59:44.138Z,10.10
2018-06-18T18:02:12.960Z,9.27
2018-06-18T18:04:41.600Z,9.30
2018-06-18T18:07:10.385Z,8.57
2018-06-18T18:09:39.078Z,8.80
2018-06-18T18:12:07.775Z,8.77
2018-06-18T18:14:36.493Z,9.13
2018-06-18T18:17:05.405Z,9.00
2018-06-18T18:19:34.115Z,8.90
2018-06-18T18:22:02.802Z,8.90
2018-06-18T18:24:31.475Z,8.60
2018-06-18T18:27:00.070Z,8.53
2018-06-18T18:29:28.677Z,9.10
2018-06-18T18:31:57.292Z,8.77
2018-06-18T18:34:25.924Z,8.43
2018-06-18T18:36:54.704Z,8.90
2018-06-18T18:39:23.391Z,8.80
2018-06-18T18:41:52.048Z,9.20
2018-06-18T18:44:20.761Z,8.70
2018-06-18T18:46:49.614Z,8.73
2018-06-18T18:49:18.240Z,8.77
2018-06-18T18:51:48.266Z,8.63
2018-06-18T18:55:31.424Z,8.10
2018-06-18T18:58:12.541Z,9.70
2018-06-18T19:00:41.441Z,8.40
2018-06-18T19:03:10.102Z,7.70
2018-06-18T19:05:38.854Z,7.87
2018-06-18T19:08:08.333Z,7.80
2018-06-18T19:10:39.011Z,8.10
2018-06-18T19:13:10.551Z,7.70
2018-06-18T19:15:39.770Z,7.57
2018-06-18T19:18:09.127Z,7.40
2018-06-18T19:20:47.762Z,7.70
2018-06-18T19:23:16.517Z,7.97
2018-06-18T19:25:45.275Z,8.07
2018-06-18T19:28:13.963Z,8.17
2018-06-18T19:30:45.525Z,7.73
2018-06-18T19:33:18.393Z,7.50
2018-06-18T19:35:47.085Z,7.80
2018-06-18T19:38:15.716Z,8.27
2018-06-18T19:40:44.417Z,8.47
2018-06-18T19:43:13.075Z,7.70
2018-06-18T19:45:45.043Z,8.20
2018-06-18T19:48:18.517Z,8.23
2018-06-18T19:50:47.313Z,8.27
2018-06-18T19:53:15.949Z,8.30
2018-06-18T19:55:44.636Z,8.10
2018-06-18T19:58:13.343Z,8.20
2018-06-18T20:00:50.333Z,9.20
2018-06-18T20:03:19.100Z,9.37
2018-06-18T20:05:48.790Z,8.93
2018-06-18T20:08:23.832Z,8.40
2018-06-18T20:10:52.606Z,8.77
2018-06-18T20:13:20.934Z,8.63
2018-06-18T20:15:49.730Z,9.30
2018-06-18T20:18:18.396Z,9.07
2018-06-18T20:20:47.095Z,9.00
2018-06-18T20:23:17.997Z,9.53
2018-06-18T20:25:49.251Z,9.00
2018-06-18T20:28:18.923Z,8.77
2018-06-18T20:30:47.649Z,8.97
2018-06-18T20:33:18.105Z,9.23
2018-06-18T20:35:53.431Z,9.83
2018-06-18T20:38:22.154Z,10.13
2018-06-18T20:40:50.989Z,9.33
2018-06-18T20:43:20.439Z,10.20
2018-06-18T20:45:49.203Z,8.90
2018-06-18T20:48:17.961Z,9.73
2018-06-18T20:50:46.715Z,9.20
2018-06-18T20:53:15.487Z,9.43
2018-06-18T20:55:44.232Z,9.20
2018-06-18T20:58:17.096Z,9.27
2018-06-18T21:00:45.830Z,9.20
2018-06-18T21:03:14.600Z,9.70
2018-06-18T21:05:43.370Z,9.93
2018-06-18T21:08:12.164Z,10.20
2018-06-18T21:10:41.027Z,9.70
2018-06-18T21:13:09.835Z,9.30
2018-06-18T21:15:38.546Z,10.20
2018-06-18T21:18:07.391Z,10.07
2018-06-18T21:20:36.144Z,10.23
2018-06-18T21:23:05.779Z,11.13
2018-06-18T21:25:34.574Z,11.23
2018-06-18T21:28:03.411Z,11.30
2018-06-18T21:30:31.736Z,11.17
2018-06-18T21:33:00.875Z,11.57
2018-06-18T21:35:29.646Z,11.43
2018-06-18T21:37:58.339Z,10.90
2018-06-18T21:40:27.056Z,10.67
2018-06-18T21:42:55.392Z,9.27
2018-06-18T21:45:25.584Z,8.07
2018-06-18T21:47:55.351Z,8.33
2018-06-18T21:50:24.087Z,6.40
2018-06-18T21:52:52.788Z,6.27
2018-06-18T21:55:21.448Z,5.00
2018-06-18T21:57:50.236Z,4.27
2018-06-18T22:00:22.177Z,4.37
2018-06-18T22:02:50.882Z,4.10
2018-06-18T22:05:19.635Z,3.70
2018-06-18T22:07:48.353Z,3.70
2018-06-18T22:10:17.241Z,3.80
2018-06-18T22:12:47.083Z,3.40
2018-06-18T22:15:15.977Z,3.20
2018-06-18T22:17:46.150Z,4.20
2018-06-18T22:20:15.060Z,3.53
2018-06-18T22:22:43.987Z,3.10
2018-06-18T22:25:13.037Z,3.10
2018-06-18T22:27:41.992Z,3.40
2018-06-18T22:30:11.243Z,3.00
2018-06-18T22:32:41.230Z,3.30
2018-06-18T22:35:10.190Z,3.07
2018-06-18T22:37:40.376Z,3.17
2018-06-18T22:40:09.408Z,3.30
2018-06-18T22:42:38.460Z,3.30
2018-06-18T22:45:09.593Z,3.23
2018-06-18T22:47:39.917Z,3.47
2018-06-18T22:50:08.719Z,3.20
2018-06-18T22:52:37.537Z,3.30
2018-06-18T22:55:06.352Z,3.60
2018-06-18T22:57:35.357Z,3.73
2018-06-18T23:00:04.204Z,3.77
2018-06-18T23:02:33.731Z,3.57
2018-06-18T23:05:02.453Z,3.47
2018-06-18T23:07:31.230Z,3.67
2018-06-18T23:10:00.013Z,4.07
2018-06-18T23:12:35.946Z,4.10
2018-06-18T23:15:05.954Z,4.30
2018-06-18T23:17:34.712Z,4.20
2018-06-18T23:20:03.521Z,4.33
2018-06-18T23:22:32.264Z,4.80
2018-06-18T23:25:00.932Z,4.70
2018-06-18T23:27:29.696Z,4.50
2018-06-18T23:29:58.428Z,4.80
2018-06-18T23:32:27.165Z,5.10
2018-06-18T23:34:55.901Z,4.90
2018-06-18T23:37:24.658Z,4.90
2018-06-18T23:39:53.525Z,4.80
2018-06-18T23:42:22.333Z,4.47
2018-06-18T23:44:51.122Z,4.67
2018-06-18T23:47:19.873Z,4.23
2018-06-18T23:49:48.673Z,4.60
2018-06-18T23:52:17.405Z,4.57
2018-06-18T23:54:46.065Z,4.67
2018-06-18T23:57:14.759Z,4.70
2018-06-18T23:59:43.610Z,4.40
